Startpagina
METAR-TAF:

METAR-TAF

Vliegvelden :

Amman, Jordanië

breedte: 31-59N, lengte: 035-59E, hoogte: 767 m

Actueel weer

Dit bericht is 59 minuten geleden gemaakt, om 16:00 UTC
Wind 13 kt uit het westen
Temperatuur 28°C
Vochtigheid 40%
Druk 1011 hPa
Zicht: 5000 m
Heiigheid

METAR: OJAM 151600Z 28013KT 5000 HZ NSC 28/13 Q1011 NOSIG

Tijdstip: 19:59 (16:59 UTC)

Verwachting

Dit bericht is 7 uur en het 7 minuten geleden gemaakt, om 09:52 UTC
Verwachting geldig van 15 om 12 UTC tot 16 om 18 UTC
Wind 12 kt uit het westnoordwesten
Zicht: 5000 m
Heiigheid
Tijdelijke
van 15 om 12 UTC tot 15 om 18 UTC
Wind 16 kt uit het westnoordwesten

TAF: OJAM 150952Z 1512/1618 29012KT 5000 HZ NSC TEMPO 1512/1518 30016KT

Waarnemingen en weersverwachtingen van meer dan 4000 vliegvelden (METAR en TAF).

De beschikbare stations zijn de gele en rode punten op de kaart.

Ga met uw muis naar het station om de naam te zien.

Klik dan om waarnemingen en weersverwachtingen te zien.

kaart wijzigen: klik op de groene knoppen met een zwart kruis om in te zoomen, op de groene knop met een streepje om uit te zoomen of op de groene pijlen voor aangrenzende kaarten.


METAR-TAF: